Latest Weather Observations for Gympie
Issued at 5:51 am EST Wednesday 2 September 2026 (issued every 10 minutes, with the page automatically refreshed every 10 minutes)
| Station Details | ID: 040093 | Name: GYMPIE | Lat: -26.18 | Lon: 152.64 | Height: 64.5 m |
| Date/Time EST |
Temp °C |
App Temp °C |
Dew Point °C |
Rel Hum % |
Delta-T °C |
Wind | Press QNH hPa |
Press MSL hPa |
Rain since 9am mm |
||||
|---|---|---|---|---|---|---|---|---|---|---|---|---|---|
| Dir | Spd km/h |
Gust km/h |
Spd kts |
Gust kts |
|||||||||
| 02/05:30am | 8.4 | 8.0 | 8.1 | 98 | 0.1 | CALM | 0 | 0 | 0 | 0 | 1024.3 | 1024.1 | 0.0 |
| 02/05:00am | 8.7 | 8.3 | 8.4 | 98 | 0.1 | CALM | 0 | 0 | 0 | 0 | 1024.1 | 1023.9 | 0.0 |
| 02/04:30am | 8.7 | 8.3 | 8.4 | 98 | 0.1 | CALM | 0 | 0 | 0 | 0 | 1024.4 | 1024.2 | 0.0 |
| 02/04:00am | 8.9 | 8.6 | 8.6 | 98 | 0.1 | CALM | 0 | 0 | 0 | 0 | 1024.4 | 1024.2 | 0.0 |
| 02/03:30am | 8.8 | 8.5 | 8.5 | 98 | 0.1 | CALM | 0 | 0 | 0 | 0 | 1024.6 | 1024.4 | 0.0 |
| 02/03:00am | 9.2 | 8.9 | 8.7 | 97 | 0.2 | CALM | 0 | 0 | 0 | 0 | 1024.9 | 1024.7 | 0.0 |
| 02/02:30am | 9.2 | 8.9 | 8.7 | 97 | 0.2 | CALM | 0 | 0 | 0 | 0 | 1025.0 | 1024.8 | 0.0 |
| 02/02:00am | 9.3 | 9.0 | 8.8 | 97 | 0.2 | CALM | 0 | 0 | 0 | 0 | 1025.2 | 1025.0 | 0.0 |
| 02/01:30am | 9.5 | 9.3 | 9.0 | 97 | 0.2 | CALM | 0 | 2 | 0 | 1 | 1025.4 | 1025.2 | 0.0 |
| 02/01:00am | 10.0 | 9.9 | 9.5 | 97 | 0.2 | CALM | 0 | 0 | 0 | 0 | 1025.7 | 1025.5 | 0.0 |
| 02/12:30am | 10.2 | 10.1 | 9.6 | 96 | 0.3 | CALM | 0 | 0 | 0 | 0 | 1025.8 | 1025.6 | 0.0 |
| 02/12:00am | 11.0 | 11.2 | 10.5 | 97 | 0.3 | CALM | 0 | 0 | 0 | 0 | 1025.9 | 1025.7 | 0.0 |
| Date/Time EST |
Temp °C |
App Temp °C |
Dew Point °C |
Rel Hum % |
Delta-T °C |
Wind | Press QNH hPa |
Press MSL hPa |
Rain since 9am mm |
||||
|---|---|---|---|---|---|---|---|---|---|---|---|---|---|
| Dir | Spd km/h |
Gust km/h |
Spd kts |
Gust kts |
|||||||||
| 01/11:30pm | 10.9 | 11.0 | 10.3 | 96 | 0.3 | CALM | 0 | 0 | 0 | 0 | 1026.2 | 1026.0 | 0.0 |
| 01/11:00pm | 11.6 | 11.9 | 11.0 | 96 | 0.3 | CALM | 0 | 0 | 0 | 0 | 1026.4 | 1026.2 | 0.0 |
| 01/10:30pm | 11.7 | 12.0 | 10.9 | 95 | 0.4 | CALM | 0 | 0 | 0 | 0 | 1026.5 | 1026.3 | 0.0 |
| 01/10:00pm | 12.2 | 12.3 | 11.4 | 95 | 0.4 | SW | 2 | 2 | 1 | 1 | 1026.5 | 1026.3 | 0.0 |
| 01/09:30pm | 12.4 | 12.8 | 11.3 | 93 | 0.6 | CALM | 0 | 2 | 0 | 1 | 1026.5 | 1026.3 | 0.0 |
| 01/09:00pm | 13.6 | 14.4 | 12.5 | 93 | 0.6 | CALM | 0 | 0 | 0 | 0 | 1026.5 | 1026.3 | 0.0 |
| 01/08:30pm | 14.6 | 15.4 | 12.6 | 88 | 1.1 | CALM | 0 | 0 | 0 | 0 | 1026.4 | 1026.2 | 0.0 |
| 01/08:00pm | 14.9 | 15.7 | 12.4 | 85 | 1.4 | CALM | 0 | 0 | 0 | 0 | 1026.4 | 1026.2 | 0.0 |
| 01/07:30pm | 15.9 | 16.7 | 12.6 | 81 | 1.8 | CALM | 0 | 0 | 0 | 0 | 1026.3 | 1026.1 | 0.0 |
| 01/07:00pm | 17.0 | 17.8 | 12.5 | 75 | 2.5 | CALM | 0 | 0 | 0 | 0 | 1026.0 | 1025.8 | 0.0 |
| 01/06:30pm | 18.1 | 17.7 | 12.5 | 70 | 3.1 | E | 6 | 9 | 3 | 5 | 1025.5 | 1025.3 | 0.0 |
| 01/06:00pm | 18.6 | 18.6 | 12.4 | 67 | 3.4 | ESE | 4 | 6 | 2 | 3 | 1025.3 | 1025.1 | 0.0 |
| 01/05:30pm | 19.6 | 19.5 | 12.1 | 62 | 4.2 | ENE | 4 | 11 | 2 | 6 | 1025.1 | 1024.9 | 0.0 |
| 01/05:00pm | 21.0 | 20.5 | 12.2 | 57 | 4.9 | NE | 6 | 13 | 3 | 7 | 1024.7 | 1024.5 | 0.0 |
| 01/04:30pm | 21.7 | 21.2 | 12.0 | 54 | 5.5 | ENE | 6 | 15 | 3 | 8 | 1024.8 | 1024.6 | 0.0 |
| 01/04:00pm | 22.2 | 21.5 | 11.9 | 52 | 5.8 | ENE | 7 | 17 | 4 | 9 | 1024.9 | 1024.7 | 0.0 |
| 01/03:30pm | 21.9 | 20.2 | 11.3 | 51 | 5.9 | E | 11 | 19 | 6 | 10 | 1024.9 | 1024.7 | 0.0 |
| 01/03:00pm | 22.2 | 21.5 | 11.9 | 52 | 5.8 | ENE | 7 | 15 | 4 | 8 | 1025.0 | 1024.8 | 0.0 |
| 01/02:30pm | 22.2 | 21.0 | 11.6 | 51 | 5.9 | NE | 9 | 15 | 5 | 8 | 1025.3 | 1025.1 | 0.0 |
| 01/02:00pm | 22.5 | 21.1 | 10.9 | 47 | 6.4 | ENE | 9 | 20 | 5 | 11 | 1025.4 | 1025.2 | 0.0 |
| 01/01:30pm | 22.9 | 21.5 | 11.0 | 47 | 6.6 | ENE | 9 | 17 | 5 | 9 | 1025.7 | 1025.5 | 0.0 |
| 01/01:00pm | 23.7 | 22.0 | 11.1 | 45 | 7.0 | ENE | 11 | 19 | 6 | 10 | 1026.1 | 1025.9 | 0.0 |
| 01/12:30pm | 22.9 | 21.9 | 11.0 | 47 | 6.6 | ENE | 7 | 15 | 4 | 8 | 1026.7 | 1026.5 | 0.0 |
| 01/12:00pm | 22.1 | 20.6 | 10.6 | 48 | 6.3 | NE | 9 | 19 | 5 | 10 | 1027.2 | 1027.0 | 0.0 |
| 01/11:30am | 22.5 | 20.6 | 10.6 | 47 | 6.6 | E | 11 | 26 | 6 | 14 | 1027.7 | 1027.6 | 0.0 |
| 01/11:00am | 22.6 | 20.5 | 9.7 | 44 | 7.0 | E | 11 | 19 | 6 | 10 | 1028.1 | 1028.0 | 0.0 |
| 01/10:30am | 21.5 | 20.4 | 12.1 | 55 | 5.3 | ESE | 9 | 20 | 5 | 11 | 1028.7 | 1028.6 | 0.0 |
| 01/10:00am | 21.1 | 21.7 | 15.4 | 70 | 3.4 | SSE | 6 | 13 | 3 | 7 | 1029.2 | 1029.1 | 0.0 |
| 01/09:30am | 20.2 | 20.8 | 15.4 | 74 | 2.8 | SSE | 6 | 13 | 3 | 7 | 1029.4 | 1029.3 | 0.0 |
| 01/09:00am | 19.4 | 19.8 | 15.3 | 77 | 2.4 | SE | 7 | 9 | 4 | 5 | 1029.5 | 1029.4 | 1.6 |
| 01/08:30am | 18.9 | 20.3 | 15.4 | 80 | 2.1 | ESE | 2 | 9 | 1 | 5 | 1029.6 | 1029.6 | 1.6 |
| 01/08:00am | 17.8 | 19.8 | 16.0 | 89 | 1.1 | CALM | 0 | 2 | 0 | 1 | 1029.4 | 1029.3 | 1.6 |
| 01/07:30am | 15.7 | 17.4 | 15.2 | 97 | 0.3 | CALM | 0 | 0 | 0 | 0 | 1029.1 | 1029.0 | 1.6 |
| 01/07:00am | 15.0 | 16.4 | 14.5 | 97 | 0.3 | CALM | 0 | 0 | 0 | 0 | 1028.9 | 1028.8 | 1.6 |
| 01/06:30am | 14.6 | 15.9 | 14.1 | 97 | 0.3 | CALM | 0 | 0 | 0 | 0 | 1028.4 | 1028.3 | 1.6 |
| 01/06:00am | 14.6 | 15.9 | 14.0 | 96 | 0.3 | CALM | 0 | 0 | 0 | 0 | 1028.0 | 1027.9 | 1.6 |
| 01/05:30am | 14.8 | 16.1 | 14.2 | 96 | 0.3 | CALM | 0 | 2 | 0 | 1 | 1027.7 | 1027.6 | 1.4 |
| 01/05:00am | 14.9 | 15.5 | 14.3 | 96 | 0.3 | SW | 4 | 6 | 2 | 3 | 1027.5 | 1027.4 | 1.4 |
| 01/04:30am | 15.1 | 15.8 | 14.5 | 96 | 0.3 | ESE | 4 | 9 | 2 | 5 | 1027.6 | 1027.5 | 0.8 |
| 01/04:00am | 14.8 | 16.1 | 14.2 | 96 | 0.3 | CALM | 0 | 2 | 0 | 1 | 1027.4 | 1027.3 | 0.0 |
| 01/03:30am | 14.9 | 16.2 | 14.1 | 95 | 0.5 | CALM | 0 | 0 | 0 | 0 | 1027.5 | 1027.4 | 0.0 |
| 01/03:00am | 14.7 | 15.9 | 13.9 | 95 | 0.4 | CALM | 0 | 0 | 0 | 0 | 1027.6 | 1027.5 | 0.0 |
| 01/02:30am | 14.7 | 15.6 | 13.9 | 95 | 0.5 | WSW | 2 | 2 | 1 | 1 | 1027.9 | 1027.8 | 0.0 |
| 01/02:00am | 14.8 | 15.8 | 14.2 | 96 | 0.3 | SW | 2 | 6 | 1 | 3 | 1028.2 | 1028.1 | 0.0 |
| 01/01:30am | 14.9 | 16.2 | 14.1 | 95 | 0.5 | CALM | 0 | 0 | 0 | 0 | 1028.6 | 1028.5 | 0.0 |
| 01/01:00am | 15.3 | 16.7 | 14.3 | 94 | 0.6 | CALM | 0 | 0 | 0 | 0 | 1028.9 | 1028.8 | 0.0 |
| 01/12:30am | 15.5 | 16.9 | 14.5 | 94 | 0.6 | CALM | 0 | 0 | 0 | 0 | 1029.2 | 1029.1 | 0.0 |
| 01/12:00am | 15.5 | 16.6 | 14.5 | 94 | 0.6 | NNE | 2 | 4 | 1 | 2 | 1029.3 | 1029.2 | 0.0 |
| Date/Time EST |
Temp °C |
App Temp °C |
Dew Point °C |
Rel Hum % |
Delta-T °C |
Wind | Press QNH hPa |
Press MSL hPa |
Rain since 9am mm |
||||
|---|---|---|---|---|---|---|---|---|---|---|---|---|---|
| Dir | Spd km/h |
Gust km/h |
Spd kts |
Gust kts |
|||||||||
| 31/11:30pm | 15.4 | 16.0 | 14.3 | 93 | 0.6 | S | 4 | 9 | 2 | 5 | 1029.5 | 1029.4 | 0.0 |
| 31/11:00pm | 15.4 | 16.3 | 14.1 | 92 | 0.7 | SE | 2 | 2 | 1 | 1 | 1029.4 | 1029.3 | 0.0 |
| 31/10:30pm | 16.0 | 17.3 | 14.2 | 89 | 1.0 | CALM | 0 | 4 | 0 | 2 | 1029.6 | 1029.6 | 0.0 |
| 31/10:00pm | 16.1 | 16.6 | 13.9 | 87 | 1.2 | SSE | 4 | 6 | 2 | 3 | 1029.9 | 1029.9 | 0.0 |
| 31/09:30pm | 15.7 | 16.0 | 13.5 | 87 | 1.2 | S | 4 | 7 | 2 | 4 | 1029.9 | 1029.9 | 0.0 |
| 31/09:00pm | 16.2 | 16.7 | 13.9 | 86 | 1.3 | SSW | 4 | 4 | 2 | 2 | 1029.7 | 1029.7 | 0.0 |
| 31/08:30pm | 15.9 | 16.3 | 13.7 | 87 | 1.2 | SSW | 4 | 6 | 2 | 3 | 1029.6 | 1029.6 | 0.0 |
| 31/08:00pm | 16.3 | 17.1 | 13.8 | 85 | 1.4 | SSW | 2 | 4 | 1 | 2 | 1029.4 | 1029.3 | 0.0 |
| 31/07:30pm | 16.8 | 16.6 | 13.7 | 82 | 1.8 | S | 7 | 11 | 4 | 6 | 1029.1 | 1029.0 | 0.0 |
| 31/07:00pm | 17.2 | 17.2 | 13.5 | 79 | 2.1 | SSE | 6 | 11 | 3 | 6 | 1028.9 | 1028.8 | 0.0 |
| 31/06:30pm | 17.8 | 17.5 | 13.3 | 75 | 2.5 | SE | 7 | 15 | 4 | 8 | 1028.5 | 1028.4 | 0.0 |
| 31/06:00pm | 18.0 | 17.3 | 13.1 | 73 | 2.7 | SSE | 9 | 17 | 5 | 9 | 1028.1 | 1028.0 | 0.0 |
| 31/05:30pm | 19.6 | 17.9 | 12.6 | 64 | 3.9 | ESE | 13 | 22 | 7 | 12 | 1027.8 | 1027.7 | 0.0 |
| 31/05:00pm | 20.8 | 18.4 | 11.4 | 55 | 5.2 | E | 15 | 24 | 8 | 13 | 1027.5 | 1027.4 | 0.0 |
| 31/04:30pm | 21.8 | 20.4 | 10.9 | 50 | 6.0 | ENE | 9 | 17 | 5 | 9 | 1027.1 | 1027.0 | 0.0 |
| 31/04:00pm | 22.4 | 20.9 | 10.5 | 47 | 6.5 | E | 9 | 17 | 5 | 9 | 1026.9 | 1026.8 | 0.0 |
| 31/03:30pm | 23.0 | 20.7 | 10.4 | 45 | 6.9 | ESE | 13 | 22 | 7 | 12 | 1026.8 | 1026.7 | 0.0 |
| 31/03:00pm | 23.3 | 21.4 | 10.4 | 44 | 7.1 | E | 11 | 22 | 6 | 12 | 1026.9 | 1026.8 | 0.0 |
| 31/02:30pm | 22.6 | 20.5 | 9.7 | 44 | 7.0 | SE | 11 | 20 | 6 | 11 | 1027.1 | 1027.0 | 0.0 |
| 31/02:00pm | 23.3 | 20.5 | 10.0 | 43 | 7.2 | ESE | 15 | 24 | 8 | 13 | 1027.1 | 1027.0 | 0.0 |
| 31/01:30pm | 23.8 | 21.5 | 10.5 | 43 | 7.4 | E | 13 | 32 | 7 | 17 | 1027.3 | 1027.2 | 0.0 |
| 31/01:00pm | 22.4 | 19.8 | 9.2 | 43 | 7.1 | SE | 13 | 24 | 7 | 13 | 1027.7 | 1027.6 | 0.0 |
| 31/12:30pm | 22.2 | 19.5 | 9.0 | 43 | 7.1 | SE | 13 | 22 | 7 | 12 | 1027.9 | 1027.8 | 0.0 |
| 31/12:00pm | 22.1 | 20.4 | 9.9 | 46 | 6.6 | SE | 9 | 15 | 5 | 8 | 1028.3 | 1028.2 | 0.0 |
| 31/11:30am | 22.2 | 20.5 | 10.0 | 46 | 6.6 | SE | 9 | 15 | 5 | 8 | 1028.6 | 1028.5 | 0.0 |
| 31/11:00am | 21.5 | 19.7 | 10.9 | 51 | 5.8 | ESE | 11 | 19 | 6 | 10 | 1029.0 | 1028.9 | 0.0 |
| 31/10:30am | 21.1 | 19.9 | 11.7 | 55 | 5.2 | ESE | 9 | 20 | 5 | 11 | 1029.5 | 1029.4 | 0.0 |
| 31/10:00am | 20.1 | 20.1 | 13.6 | 66 | 3.7 | SE | 6 | 13 | 3 | 7 | 1029.7 | 1029.7 | 0.0 |
| 31/09:30am | 18.9 | 19.0 | 14.0 | 73 | 2.8 | SSE | 6 | 9 | 3 | 5 | 1029.8 | 1029.8 | 0.0 |
| 31/09:00am | 16.6 | 17.0 | 13.7 | 83 | 1.6 | ESE | 4 | 6 | 2 | 3 | 1029.8 | 1029.8 | 0.0 |
| 31/08:30am | 14.1 | 15.3 | 13.8 | 98 | 0.2 | CALM | 0 | 0 | 0 | 0 | 1029.7 | 1029.7 | 0.0 |
| 31/08:00am | 13.3 | 14.2 | 13.0 | 98 | 0.2 | CALM | 0 | 0 | 0 | 0 | 1029.4 | 1029.3 | 0.0 |
| 31/07:30am | 12.1 | 12.7 | 11.8 | 98 | 0.2 | CALM | 0 | 0 | 0 | 0 | 1029.3 | 1029.2 | 0.0 |
| 31/07:00am | 10.9 | 11.1 | 10.6 | 98 | 0.2 | CALM | 0 | 0 | 0 | 0 | 1029.1 | 1029.0 | 0.0 |
| 31/06:30am | 9.9 | 9.8 | 9.6 | 98 | 0.2 | CALM | 0 | 2 | 0 | 1 | 1028.6 | 1028.5 | 0.0 |
| 31/06:00am | 10.1 | 10.1 | 9.8 | 98 | 0.2 | CALM | 0 | 0 | 0 | 0 | 1028.3 | 1028.2 | 0.0 |
| 31/05:30am | 10.9 | 11.1 | 10.6 | 98 | 0.2 | CALM | 0 | 0 | 0 | 0 | 1028.2 | 1028.1 | 0.0 |
| 31/05:00am | 11.1 | 11.4 | 10.8 | 98 | 0.2 | CALM | 0 | 0 | 0 | 0 | 1028.0 | 1027.9 | 0.0 |
| 31/04:30am | 11.2 | 11.5 | 10.9 | 98 | 0.2 | CALM | 0 | 0 | 0 | 0 | 1027.9 | 1027.8 | 0.0 |
| 31/04:00am | 10.8 | 11.0 | 10.5 | 98 | 0.2 | CALM | 0 | 0 | 0 | 0 | 1027.8 | 1027.7 | 0.0 |
| 31/03:30am | 10.2 | 10.2 | 9.7 | 97 | 0.3 | CALM | 0 | 4 | 0 | 2 | 1027.7 | 1027.6 | 0.0 |
| 31/03:00am | 10.0 | 9.9 | 9.5 | 97 | 0.2 | CALM | 0 | 0 | 0 | 0 | 1027.9 | 1027.8 | 0.0 |
| 31/02:30am | 9.9 | 9.8 | 9.4 | 97 | 0.2 | CALM | 0 | 0 | 0 | 0 | 1027.9 | 1027.8 | 0.0 |
| 31/02:00am | 10.3 | 10.3 | 9.8 | 97 | 0.3 | CALM | 0 | 0 | 0 | 0 | 1027.9 | 1027.8 | 0.0 |
| 31/01:30am | 10.3 | 10.3 | 9.7 | 96 | 0.3 | CALM | 0 | 0 | 0 | 0 | 1028.1 | 1028.0 | 0.0 |
| 31/01:00am | 11.0 | 11.2 | 10.4 | 96 | 0.3 | CALM | 0 | 0 | 0 | 0 | 1028.3 | 1028.2 | 0.0 |
| 31/12:30am | 11.1 | 11.3 | 10.5 | 96 | 0.3 | CALM | 0 | 0 | 0 | 0 | 1028.5 | 1028.4 | 0.0 |
| 31/12:00am | 11.7 | 12.1 | 11.1 | 96 | 0.3 | CALM | 0 | 0 | 0 | 0 | 1028.8 | 1028.7 | 0.0 |
| Date/Time EST |
Temp °C |
App Temp °C |
Dew Point °C |
Rel Hum % |
Delta-T °C |
Wind | Press QNH hPa |
Press MSL hPa |
Rain since 9am mm |
||||
|---|---|---|---|---|---|---|---|---|---|---|---|---|---|
| Dir | Spd km/h |
Gust km/h |
Spd kts |
Gust kts |
|||||||||
| 30/11:30pm | 12.6 | 12.8 | 12.0 | 96 | 0.3 | ESE | 2 | 4 | 1 | 2 | 1028.9 | 1028.8 | 0.0 |
| 30/11:00pm | 12.6 | 12.5 | 12.0 | 96 | 0.3 | SE | 4 | 6 | 2 | 3 | 1028.9 | 1028.8 | 0.0 |
| 30/10:30pm | 12.6 | 12.8 | 12.0 | 96 | 0.3 | SSE | 2 | 4 | 1 | 2 | 1028.9 | 1028.8 | 0.0 |
| 30/10:00pm | 12.8 | 13.1 | 12.2 | 96 | 0.3 | SSE | 2 | 2 | 1 | 1 | 1029.1 | 1029.0 | 0.0 |
| 30/09:30pm | 13.6 | 14.0 | 12.5 | 93 | 0.6 | SE | 2 | 2 | 1 | 1 | 1029.0 | 1028.9 | 0.0 |
| 30/09:00pm | 14.4 | 15.0 | 13.0 | 91 | 0.8 | SE | 2 | 4 | 1 | 2 | 1028.9 | 1028.8 | 0.0 |
| 30/08:30pm | 14.3 | 14.1 | 12.9 | 91 | 0.8 | S | 6 | 6 | 3 | 3 | 1028.7 | 1028.6 | 0.0 |
| 30/08:00pm | 14.4 | 15.0 | 13.0 | 91 | 0.8 | SE | 2 | 4 | 1 | 2 | 1028.6 | 1028.5 | 0.0 |
| 30/07:30pm | 15.3 | 16.4 | 13.5 | 89 | 1.0 | CALM | 0 | 2 | 0 | 1 | 1028.3 | 1028.2 | 0.0 |
| 30/07:00pm | 16.6 | 16.6 | 13.7 | 83 | 1.6 | SE | 6 | 7 | 3 | 4 | 1028.1 | 1028.0 | 0.0 |
| 30/06:30pm | 16.9 | 17.7 | 13.8 | 82 | 1.8 | SE | 2 | 4 | 1 | 2 | 1027.7 | 1027.6 | 0.0 |
| 30/06:00pm | 17.4 | 17.8 | 13.7 | 79 | 2.1 | SE | 4 | 6 | 2 | 3 | 1027.5 | 1027.4 | 0.0 |
| 30/05:30pm | 18.7 | 18.6 | 14.0 | 74 | 2.7 | SE | 7 | 13 | 4 | 7 | 1027.2 | 1027.1 | 0.0 |
| 30/05:00pm | 19.2 | 18.6 | 13.6 | 70 | 3.2 | SE | 9 | 19 | 5 | 10 | 1026.8 | 1026.7 | 0.0 |
| 30/04:30pm | 20.9 | 20.2 | 13.1 | 61 | 4.5 | SE | 9 | 22 | 5 | 12 | 1026.5 | 1026.4 | 0.0 |
| 30/04:00pm | 19.6 | 18.5 | 13.1 | 66 | 3.7 | SSE | 11 | 19 | 6 | 10 | 1026.5 | 1026.4 | 0.0 |
| 30/03:30pm | 20.1 | 20.1 | 14.2 | 69 | 3.4 | SE | 7 | 19 | 4 | 10 | 1026.5 | 1026.4 | 0.0 |
| 30/03:00pm | 19.9 | 19.6 | 14.3 | 70 | 3.2 | E | 9 | 19 | 5 | 10 | 1026.5 | 1026.4 | 0.0 |
| 30/02:30pm | 20.2 | 19.3 | 13.6 | 66 | 3.8 | ESE | 11 | 22 | 6 | 12 | 1026.5 | 1026.4 | 0.0 |
| 30/02:00pm | 20.6 | 19.8 | 14.0 | 66 | 3.8 | E | 11 | 24 | 6 | 13 | 1026.6 | 1026.5 | 0.0 |
| 30/01:30pm | 21.5 | 19.8 | 13.7 | 61 | 4.5 | ESE | 15 | 28 | 8 | 15 | 1026.6 | 1026.5 | 0.0 |
| 30/01:00pm | 21.0 | 20.3 | 14.4 | 66 | 3.8 | SSE | 11 | 20 | 6 | 11 | 1026.8 | 1026.7 | 0.0 |
| 30/12:30pm | 20.5 | 20.2 | 14.4 | 68 | 3.6 | SE | 9 | 19 | 5 | 10 | 1027.3 | 1027.2 | 0.0 |
| 30/12:00pm | 19.6 | 20.1 | 15.5 | 77 | 2.4 | SSE | 7 | 11 | 4 | 6 | 1028.0 | 1027.9 | 0.0 |
| 30/11:30am | 18.7 | 18.8 | 15.6 | 82 | 1.8 | SSE | 9 | 19 | 5 | 10 | 1028.5 | 1028.4 | 0.0 |
| 30/11:00am | 19.8 | 18.2 | 14.0 | 69 | 3.3 | S | 15 | 22 | 8 | 12 | 1028.6 | 1028.5 | 0.0 |
| 30/10:30am | 20.4 | 18.9 | 14.3 | 68 | 3.6 | S | 15 | 22 | 8 | 12 | 1028.8 | 1028.7 | 0.0 |
| 30/10:00am | 20.7 | 20.0 | 14.4 | 67 | 3.7 | SSE | 11 | 20 | 6 | 11 | 1028.9 | 1028.8 | 0.0 |
| 30/09:30am | 19.5 | 18.7 | 14.1 | 71 | 3.1 | SSE | 11 | 22 | 6 | 12 | 1028.9 | 1028.8 | 0.0 |
| 30/09:00am | 18.4 | 16.4 | 12.6 | 69 | 3.2 | SSE | 15 | 24 | 8 | 13 | 1029.1 | 1029.0 | 0.0 |
| 30/08:30am | 18.4 | 18.2 | 13.7 | 74 | 2.7 | SSE | 7 | 13 | 4 | 7 | 1028.7 | 1028.6 | 0.0 |
| 30/08:00am | 15.6 | 16.4 | 13.6 | 88 | 1.1 | E | 2 | 6 | 1 | 3 | 1028.6 | 1028.5 | 0.0 |
| 30/07:30am | 12.4 | 13.0 | 11.8 | 96 | 0.3 | CALM | 0 | 0 | 0 | 0 | 1028.4 | 1028.3 | 0.0 |
| 30/07:00am | 11.2 | 11.4 | 10.6 | 96 | 0.3 | CALM | 0 | 0 | 0 | 0 | 1028.0 | 1027.9 | 0.0 |
| 30/06:30am | 10.9 | 11.0 | 10.3 | 96 | 0.3 | CALM | 0 | 0 | 0 | 0 | 1027.8 | 1027.7 | 0.0 |
| 30/06:00am | 10.6 | 10.7 | 10.0 | 96 | 0.3 | CALM | 0 | 0 | 0 | 0 | 1027.6 | 1027.5 | 0.0 |
Latest Capital City Observations: Canberra | Sydney | Melbourne | Brisbane | Adelaide | Perth | Hobart | Darwin
Other formats
Comma delimited format used in spreadsheet applications
http://www.bom.gov.au/fwo/IDQ60901/IDQ60901.94566.axf
JavaScript Object Notation format (JSON) in row-major order
http://www.bom.gov.au/fwo/IDQ60901/IDQ60901.94566.json
Data quality
Most of these data are generated automatically and are frequently updated. Quality checks on data are not normally performed. It is possible for incorrect values to appear. Refer to information at About Latest Weather Observations and please check the disclaimer before using these data.
